sensor_id;sensor_type;location;lat;lon;timestamp;P1;durP1;ratioP1;P2;durP2;ratioP2
37777;SDS011;23615;51.506;7.678;2022-07-23T00:00:43;11.38;;;7.10;;
37777;SDS011;23615;51.506;7.678;2022-07-23T00:03:09;9.95;;;6.40;;
37777;SDS011;23615;51.506;7.678;2022-07-23T00:05:34;8.63;;;6.35;;
37777;SDS011;23615;51.506;7.678;2022-07-23T00:08:00;7.78;;;5.65;;
37777;SDS011;23615;51.506;7.678;2022-07-23T00:10:25;5.18;;;4.43;;
37777;SDS011;23615;51.506;7.678;2022-07-23T00:12:50;7.07;;;5.25;;
37777;SDS011;23615;51.506;7.678;2022-07-23T00:15:16;8.18;;;6.47;;
37777;SDS011;23615;51.506;7.678;2022-07-23T00:17:41;8.18;;;5.22;;
37777;SDS011;23615;51.506;7.678;2022-07-23T00:20:06;6.43;;;5.57;;
37777;SDS011;23615;51.506;7.678;2022-07-23T00:22:32;11.13;;;6.60;;
37777;SDS011;23615;51.506;7.678;2022-07-23T00:24:58;9.32;;;5.60;;
37777;SDS011;23615;51.506;7.678;2022-07-23T00:27:23;10.48;;;5.80;;
37777;SDS011;23615;51.506;7.678;2022-07-23T00:29:49;9.27;;;6.93;;
37777;SDS011;23615;51.506;7.678;2022-07-23T00:32:14;8.38;;;5.65;;
37777;SDS011;23615;51.506;7.678;2022-07-23T00:34:40;7.38;;;5.20;;
37777;SDS011;23615;51.506;7.678;2022-07-23T00:37:05;9.43;;;6.68;;
37777;SDS011;23615;51.506;7.678;2022-07-23T00:39:30;6.03;;;4.53;;
37777;SDS011;23615;51.506;7.678;2022-07-23T00:41:56;10.43;;;6.35;;
37777;SDS011;23615;51.506;7.678;2022-07-23T00:44:22;8.77;;;5.45;;
37777;SDS011;23615;51.506;7.678;2022-07-23T00:46:50;8.05;;;6.20;;
37777;SDS011;23615;51.506;7.678;2022-07-23T00:49:19;8.82;;;6.30;;
37777;SDS011;23615;51.506;7.678;2022-07-23T00:51:45;7.60;;;5.28;;
37777;SDS011;23615;51.506;7.678;2022-07-23T00:54:11;8.68;;;6.13;;
37777;SDS011;23615;51.506;7.678;2022-07-23T00:56:37;8.75;;;5.20;;
37777;SDS011;23615;51.506;7.678;2022-07-23T00:59:03;9.43;;;6.15;;
37777;SDS011;23615;51.506;7.678;2022-07-23T01:01:28;10.35;;;6.45;;
37777;SDS011;23615;51.506;7.678;2022-07-23T01:03:54;11.13;;;8.10;;
37777;SDS011;23615;51.506;7.678;2022-07-23T01:06:19;10.98;;;6.88;;
37777;SDS011;23615;51.506;7.678;2022-07-23T01:08:44;7.75;;;4.97;;
37777;SDS011;23615;51.506;7.678;2022-07-23T01:11:10;9.02;;;6.45;;
37777;SDS011;23615;51.506;7.678;2022-07-23T01:13:40;9.95;;;6.85;;
37777;SDS011;23615;51.506;7.678;2022-07-23T01:16:06;9.35;;;6.10;;
37777;SDS011;23615;51.506;7.678;2022-07-23T01:18:31;9.07;;;5.97;;
37777;SDS011;23615;51.506;7.678;2022-07-23T01:20:57;11.65;;;7.60;;
37777;SDS011;23615;51.506;7.678;2022-07-23T01:23:22;9.38;;;6.63;;
37777;SDS011;23615;51.506;7.678;2022-07-23T01:25:56;9.80;;;6.22;;
37777;SDS011;23615;51.506;7.678;2022-07-23T01:28:22;11.82;;;7.38;;
37777;SDS011;23615;51.506;7.678;2022-07-23T01:30:47;11.40;;;7.80;;
37777;SDS011;23615;51.506;7.678;2022-07-23T01:33:13;7.63;;;5.43;;
37777;SDS011;23615;51.506;7.678;2022-07-23T01:35:39;9.27;;;6.30;;
37777;SDS011;23615;51.506;7.678;2022-07-23T01:38:04;10.70;;;7.80;;
37777;SDS011;23615;51.506;7.678;2022-07-23T01:40:29;9.73;;;6.40;;
37777;SDS011;23615;51.506;7.678;2022-07-23T01:42:55;12.85;;;8.38;;
37777;SDS011;23615;51.506;7.678;2022-07-23T01:45:20;13.63;;;8.20;;
37777;SDS011;23615;51.506;7.678;2022-07-23T01:47:45;10.20;;;8.00;;
37777;SDS011;23615;51.506;7.678;2022-07-23T01:50:11;10.10;;;7.70;;
37777;SDS011;23615;51.506;7.678;2022-07-23T01:52:37;9.88;;;7.40;;
37777;SDS011;23615;51.506;7.678;2022-07-23T01:55:02;9.30;;;6.13;;
37777;SDS011;23615;51.506;7.678;2022-07-23T01:57:28;10.00;;;7.25;;
37777;SDS011;23615;51.506;7.678;2022-07-23T01:59:53;13.32;;;7.65;;
37777;SDS011;23615;51.506;7.678;2022-07-23T02:02:18;13.60;;;7.70;;
37777;SDS011;23615;51.506;7.678;2022-07-23T02:04:44;12.13;;;7.28;;
37777;SDS011;23615;51.506;7.678;2022-07-23T02:07:09;10.60;;;6.88;;
37777;SDS011;23615;51.506;7.678;2022-07-23T02:09:34;7.30;;;5.38;;
37777;SDS011;23615;51.506;7.678;2022-07-23T02:12:00;9.50;;;7.00;;
37777;SDS011;23615;51.506;7.678;2022-07-23T02:14:25;10.82;;;7.75;;
37777;SDS011;23615;51.506;7.678;2022-07-23T02:16:51;11.40;;;8.38;;
37777;SDS011;23615;51.506;7.678;2022-07-23T02:19:16;15.40;;;9.63;;
37777;SDS011;23615;51.506;7.678;2022-07-23T02:21:42;10.18;;;7.55;;
37777;SDS011;23615;51.506;7.678;2022-07-23T02:24:07;10.07;;;7.18;;
37777;SDS011;23615;51.506;7.678;2022-07-23T02:26:32;10.30;;;7.22;;
37777;SDS011;23615;51.506;7.678;2022-07-23T02:28:59;12.50;;;9.32;;
37777;SDS011;23615;51.506;7.678;2022-07-23T02:31:25;12.00;;;8.73;;
37777;SDS011;23615;51.506;7.678;2022-07-23T02:33:51;13.98;;;9.10;;
37777;SDS011;23615;51.506;7.678;2022-07-23T02:36:16;14.15;;;9.75;;
37777;SDS011;23615;51.506;7.678;2022-07-23T02:38:41;14.98;;;9.80;;
37777;SDS011;23615;51.506;7.678;2022-07-23T02:41:07;8.98;;;6.80;;
37777;SDS011;23615;51.506;7.678;2022-07-23T02:43:32;9.90;;;6.82;;
37777;SDS011;23615;51.506;7.678;2022-07-23T02:45:57;13.75;;;8.90;;
37777;SDS011;23615;51.506;7.678;2022-07-23T02:48:22;15.23;;;10.52;;
37777;SDS011;23615;51.506;7.678;2022-07-23T02:50:48;11.60;;;7.85;;
37777;SDS011;23615;51.506;7.678;2022-07-23T02:53:13;10.63;;;8.23;;
37777;SDS011;23615;51.506;7.678;2022-07-23T02:55:38;9.68;;;6.78;;
37777;SDS011;23615;51.506;7.678;2022-07-23T02:58:04;15.98;;;9.35;;
37777;SDS011;23615;51.506;7.678;2022-07-23T03:00:29;11.77;;;8.35;;
37777;SDS011;23615;51.506;7.678;2022-07-23T03:02:54;10.02;;;8.15;;
37777;SDS011;23615;51.506;7.678;2022-07-23T03:05:20;8.60;;;6.95;;
37777;SDS011;23615;51.506;7.678;2022-07-23T03:07:45;8.38;;;6.50;;
37777;SDS011;23615;51.506;7.678;2022-07-23T03:10:10;7.85;;;5.90;;
37777;SDS011;23615;51.506;7.678;2022-07-23T03:12:35;9.23;;;6.80;;
37777;SDS011;23615;51.506;7.678;2022-07-23T03:15:01;7.38;;;5.45;;
37777;SDS011;23615;51.506;7.678;2022-07-23T03:17:26;8.05;;;6.43;;
37777;SDS011;23615;51.506;7.678;2022-07-23T03:19:51;8.02;;;6.18;;
37777;SDS011;23615;51.506;7.678;2022-07-23T03:22:17;9.27;;;5.20;;
37777;SDS011;23615;51.506;7.678;2022-07-23T03:24:42;7.53;;;4.95;;
37777;SDS011;23615;51.506;7.678;2022-07-23T03:27:29;8.00;;;5.20;;
37777;SDS011;23615;51.506;7.678;2022-07-23T03:29:55;13.18;;;7.50;;
37777;SDS011;23615;51.506;7.678;2022-07-23T03:32:23;9.43;;;7.72;;
37777;SDS011;23615;51.506;7.678;2022-07-23T03:34:49;9.07;;;6.60;;
37777;SDS011;23615;51.506;7.678;2022-07-23T03:37:14;9.00;;;7.53;;
37777;SDS011;23615;51.506;7.678;2022-07-23T03:39:40;8.48;;;6.78;;
37777;SDS011;23615;51.506;7.678;2022-07-23T03:42:06;10.75;;;6.68;;
37777;SDS011;23615;51.506;7.678;2022-07-23T03:44:32;9.18;;;6.32;;
37777;SDS011;23615;51.506;7.678;2022-07-23T03:46:57;10.85;;;7.82;;
37777;SDS011;23615;51.506;7.678;2022-07-23T03:49:22;9.52;;;6.57;;
37777;SDS011;23615;51.506;7.678;2022-07-23T03:51:48;7.15;;;5.57;;
37777;SDS011;23615;51.506;7.678;2022-07-23T03:54:13;8.98;;;6.32;;
37777;SDS011;23615;51.506;7.678;2022-07-23T03:56:38;7.93;;;5.68;;
37777;SDS011;23615;51.506;7.678;2022-07-23T03:59:04;7.07;;;6.03;;
37777;SDS011;23615;51.506;7.678;2022-07-23T04:01:29;7.57;;;6.38;;
37777;SDS011;23615;51.506;7.678;2022-07-23T04:03:55;6.38;;;5.43;;
37777;SDS011;23615;51.506;7.678;2022-07-23T04:06:20;5.55;;;5.03;;
37777;SDS011;23615;51.506;7.678;2022-07-23T04:08:45;6.38;;;5.05;;
37777;SDS011;23615;51.506;7.678;2022-07-23T04:11:10;5.15;;;4.65;;
37777;SDS011;23615;51.506;7.678;2022-07-23T04:13:36;5.32;;;4.22;;
37777;SDS011;23615;51.506;7.678;2022-07-23T04:16:01;5.18;;;4.65;;
37777;SDS011;23615;51.506;7.678;2022-07-23T04:18:26;4.80;;;4.40;;
37777;SDS011;23615;51.506;7.678;2022-07-23T04:20:52;5.38;;;4.90;;
37777;SDS011;23615;51.506;7.678;2022-07-23T04:23:17;4.40;;;4.00;;
37777;SDS011;23615;51.506;7.678;2022-07-23T04:25:43;2.65;;;2.45;;
37777;SDS011;23615;51.506;7.678;2022-07-23T04:28:08;3.47;;;3.20;;
37777;SDS011;23615;51.506;7.678;2022-07-23T04:30:33;3.00;;;2.78;;
37777;SDS011;23615;51.506;7.678;2022-07-23T04:32:59;4.43;;;3.90;;
37777;SDS011;23615;51.506;7.678;2022-07-23T04:35:24;4.78;;;4.35;;
37777;SDS011;23615;51.506;7.678;2022-07-23T04:37:49;4.90;;;3.47;;
37777;SDS011;23615;51.506;7.678;2022-07-23T04:40:15;4.57;;;3.92;;
37777;SDS011;23615;51.506;7.678;2022-07-23T04:42:40;5.15;;;4.65;;
37777;SDS011;23615;51.506;7.678;2022-07-23T04:45:05;5.68;;;4.85;;
37777;SDS011;23615;51.506;7.678;2022-07-23T04:47:31;5.32;;;3.70;;
37777;SDS011;23615;51.506;7.678;2022-07-23T04:49:56;3.97;;;3.67;;
37777;SDS011;23615;51.506;7.678;2022-07-23T04:52:22;4.30;;;3.67;;
37777;SDS011;23615;51.506;7.678;2022-07-23T04:54:48;7.90;;;5.65;;
37777;SDS011;23615;51.506;7.678;2022-07-23T04:57:13;6.05;;;4.55;;
37777;SDS011;23615;51.506;7.678;2022-07-23T04:59:38;10.30;;;6.53;;
37777;SDS011;23615;51.506;7.678;2022-07-23T05:02:04;14.70;;;9.52;;
37777;SDS011;23615;51.506;7.678;2022-07-23T05:04:29;14.20;;;10.10;;
37777;SDS011;23615;51.506;7.678;2022-07-23T05:06:56;20.85;;;12.13;;
37777;SDS011;23615;51.506;7.678;2022-07-23T05:09:21;62.33;;;17.90;;
37777;SDS011;23615;51.506;7.678;2022-07-23T05:11:46;13.23;;;9.93;;
37777;SDS011;23615;51.506;7.678;2022-07-23T05:14:11;11.45;;;8.43;;
37777;SDS011;23615;51.506;7.678;2022-07-23T05:16:37;13.38;;;9.68;;
37777;SDS011;23615;51.506;7.678;2022-07-23T05:19:03;19.20;;;11.73;;
37777;SDS011;23615;51.506;7.678;2022-07-23T05:21:28;12.18;;;9.90;;
37777;SDS011;23615;51.506;7.678;2022-07-23T05:23:54;11.18;;;9.73;;
37777;SDS011;23615;51.506;7.678;2022-07-23T05:26:19;20.52;;;11.35;;
37777;SDS011;23615;51.506;7.678;2022-07-23T05:28:44;11.25;;;8.90;;
37777;SDS011;23615;51.506;7.678;2022-07-23T05:31:09;26.30;;;14.35;;
37777;SDS011;23615;51.506;7.678;2022-07-23T05:33:35;14.13;;;9.85;;
37777;SDS011;23615;51.506;7.678;2022-07-23T05:36:03;18.13;;;12.35;;
37777;SDS011;23615;51.506;7.678;2022-07-23T05:38:29;16.88;;;10.23;;
37777;SDS011;23615;51.506;7.678;2022-07-23T05:40:55;22.40;;;13.98;;
37777;SDS011;23615;51.506;7.678;2022-07-23T05:43:21;17.45;;;11.93;;
37777;SDS011;23615;51.506;7.678;2022-07-23T05:45:46;19.92;;;12.10;;
37777;SDS011;23615;51.506;7.678;2022-07-23T05:48:11;15.05;;;11.55;;
37777;SDS011;23615;51.506;7.678;2022-07-23T05:50:37;19.38;;;13.00;;
37777;SDS011;23615;51.506;7.678;2022-07-23T05:53:02;16.02;;;10.00;;
37777;SDS011;23615;51.506;7.678;2022-07-23T05:55:27;14.45;;;11.48;;
37777;SDS011;23615;51.506;7.678;2022-07-23T05:57:54;15.52;;;11.23;;
37777;SDS011;23615;51.506;7.678;2022-07-23T06:00:20;13.40;;;10.80;;
37777;SDS011;23615;51.506;7.678;2022-07-23T06:02:46;14.13;;;10.90;;
37777;SDS011;23615;51.506;7.678;2022-07-23T06:05:11;14.13;;;11.10;;
37777;SDS011;23615;51.506;7.678;2022-07-23T06:07:36;15.25;;;10.73;;
37777;SDS011;23615;51.506;7.678;2022-07-23T06:10:02;17.70;;;11.70;;
37777;SDS011;23615;51.506;7.678;2022-07-23T06:12:28;14.88;;;9.18;;
37777;SDS011;23615;51.506;7.678;2022-07-23T06:14:54;15.05;;;11.07;;
37777;SDS011;23615;51.506;7.678;2022-07-23T06:17:19;13.15;;;9.60;;
37777;SDS011;23615;51.506;7.678;2022-07-23T06:19:44;14.43;;;10.95;;
37777;SDS011;23615;51.506;7.678;2022-07-23T06:22:10;15.55;;;12.38;;
37777;SDS011;23615;51.506;7.678;2022-07-23T06:24:35;14.32;;;12.02;;
37777;SDS011;23615;51.506;7.678;2022-07-23T06:27:01;13.20;;;9.63;;
37777;SDS011;23615;51.506;7.678;2022-07-23T06:29:26;15.85;;;11.18;;
37777;SDS011;23615;51.506;7.678;2022-07-23T06:31:51;26.92;;;13.77;;
37777;SDS011;23615;51.506;7.678;2022-07-23T06:34:17;14.85;;;9.85;;
37777;SDS011;23615;51.506;7.678;2022-07-23T06:36:42;12.68;;;10.10;;
37777;SDS011;23615;51.506;7.678;2022-07-23T06:39:07;14.55;;;10.60;;
37777;SDS011;23615;51.506;7.678;2022-07-23T06:41:33;17.13;;;11.00;;
37777;SDS011;23615;51.506;7.678;2022-07-23T06:43:58;15.75;;;10.63;;
37777;SDS011;23615;51.506;7.678;2022-07-23T06:46:23;13.25;;;9.82;;
37777;SDS011;23615;51.506;7.678;2022-07-23T06:48:50;14.73;;;10.57;;
37777;SDS011;23615;51.506;7.678;2022-07-23T06:51:15;13.57;;;10.23;;
37777;SDS011;23615;51.506;7.678;2022-07-23T06:53:40;11.65;;;8.35;;
37777;SDS011;23615;51.506;7.678;2022-07-23T06:56:06;16.60;;;12.05;;
37777;SDS011;23615;51.506;7.678;2022-07-23T06:58:31;17.60;;;13.25;;
37777;SDS011;23615;51.506;7.678;2022-07-23T07:00:57;18.65;;;12.77;;
37777;SDS011;23615;51.506;7.678;2022-07-23T07:03:22;17.30;;;12.85;;
37777;SDS011;23615;51.506;7.678;2022-07-23T07:05:48;21.05;;;13.13;;
37777;SDS011;23615;51.506;7.678;2022-07-23T07:08:14;21.42;;;13.60;;
37777;SDS011;23615;51.506;7.678;2022-07-23T07:10:40;17.67;;;13.40;;
37777;SDS011;23615;51.506;7.678;2022-07-23T07:13:05;16.85;;;11.57;;
37777;SDS011;23615;51.506;7.678;2022-07-23T07:15:30;15.43;;;10.60;;
37777;SDS011;23615;51.506;7.678;2022-07-23T07:17:56;18.95;;;11.52;;
37777;SDS011;23615;51.506;7.678;2022-07-23T07:20:21;16.75;;;12.00;;
37777;SDS011;23615;51.506;7.678;2022-07-23T07:22:46;17.42;;;12.48;;
37777;SDS011;23615;51.506;7.678;2022-07-23T07:25:12;24.83;;;16.20;;
37777;SDS011;23615;51.506;7.678;2022-07-23T07:27:37;18.02;;;12.48;;
37777;SDS011;23615;51.506;7.678;2022-07-23T07:30:04;22.30;;;14.80;;
37777;SDS011;23615;51.506;7.678;2022-07-23T07:32:30;20.52;;;12.77;;
37777;SDS011;23615;51.506;7.678;2022-07-23T07:34:57;22.17;;;13.75;;
37777;SDS011;23615;51.506;7.678;2022-07-23T07:37:22;24.15;;;15.75;;
37777;SDS011;23615;51.506;7.678;2022-07-23T07:39:47;17.30;;;11.50;;
37777;SDS011;23615;51.506;7.678;2022-07-23T07:42:13;19.15;;;14.57;;
37777;SDS011;23615;51.506;7.678;2022-07-23T07:44:38;25.67;;;15.98;;
37777;SDS011;23615;51.506;7.678;2022-07-23T07:47:03;24.77;;;16.92;;
37777;SDS011;23615;51.506;7.678;2022-07-23T07:49:29;20.85;;;14.60;;
37777;SDS011;23615;51.506;7.678;2022-07-23T07:51:54;26.27;;;17.05;;
37777;SDS011;23615;51.506;7.678;2022-07-23T07:54:19;24.15;;;16.67;;
37777;SDS011;23615;51.506;7.678;2022-07-23T07:56:44;21.15;;;15.40;;
37777;SDS011;23615;51.506;7.678;2022-07-23T07:59:10;19.40;;;13.15;;
37777;SDS011;23615;51.506;7.678;2022-07-23T08:01:36;27.48;;;19.33;;
37777;SDS011;23615;51.506;7.678;2022-07-23T08:04:01;27.35;;;17.65;;
37777;SDS011;23615;51.506;7.678;2022-07-23T08:06:27;30.23;;;21.20;;
37777;SDS011;23615;51.506;7.678;2022-07-23T08:08:52;29.90;;;20.90;;
37777;SDS011;23615;51.506;7.678;2022-07-23T08:11:17;28.92;;;19.95;;
37777;SDS011;23615;51.506;7.678;2022-07-23T08:13:43;31.92;;;20.60;;
37777;SDS011;23615;51.506;7.678;2022-07-23T08:16:09;25.65;;;20.42;;
37777;SDS011;23615;51.506;7.678;2022-07-23T08:18:35;34.50;;;23.55;;
37777;SDS011;23615;51.506;7.678;2022-07-23T08:21:00;28.35;;;20.48;;
37777;SDS011;23615;51.506;7.678;2022-07-23T08:23:25;30.13;;;21.20;;
37777;SDS011;23615;51.506;7.678;2022-07-23T08:25:52;28.60;;;19.42;;
37777;SDS011;23615;51.506;7.678;2022-07-23T08:28:17;27.90;;;21.30;;
37777;SDS011;23615;51.506;7.678;2022-07-23T08:30:43;33.50;;;24.83;;
37777;SDS011;23615;51.506;7.678;2022-07-23T08:33:10;30.85;;;21.08;;
37777;SDS011;23615;51.506;7.678;2022-07-23T08:35:41;27.67;;;20.25;;
37777;SDS011;23615;51.506;7.678;2022-07-23T08:38:11;31.92;;;22.33;;
37777;SDS011;23615;51.506;7.678;2022-07-23T08:40:39;34.92;;;23.90;;
37777;SDS011;23615;51.506;7.678;2022-07-23T08:43:07;31.48;;;23.70;;
37777;SDS011;23615;51.506;7.678;2022-07-23T08:45:36;26.45;;;20.42;;
37777;SDS011;23615;51.506;7.678;2022-07-23T08:48:03;34.10;;;23.42;;
37777;SDS011;23615;51.506;7.678;2022-07-23T08:50:32;33.20;;;23.23;;
37777;SDS011;23615;51.506;7.678;2022-07-23T08:52:59;25.70;;;19.73;;
37777;SDS011;23615;51.506;7.678;2022-07-23T08:55:25;22.85;;;17.70;;
37777;SDS011;23615;51.506;7.678;2022-07-23T08:57:51;22.10;;;17.92;;
37777;SDS011;23615;51.506;7.678;2022-07-23T09:00:18;22.08;;;18.55;;
37777;SDS011;23615;51.506;7.678;2022-07-23T09:02:45;25.17;;;17.85;;
37777;SDS011;23615;51.506;7.678;2022-07-23T09:05:11;23.75;;;19.80;;
37777;SDS011;23615;51.506;7.678;2022-07-23T09:07:38;24.05;;;19.88;;
37777;SDS011;23615;51.506;7.678;2022-07-23T09:10:43;32.92;;;23.98;;
37777;SDS011;23615;51.506;7.678;2022-07-23T09:13:36;33.08;;;25.70;;
37777;SDS011;23615;51.506;7.678;2022-07-23T09:16:04;32.38;;;23.27;;
37777;SDS011;23615;51.506;7.678;2022-07-23T09:18:36;26.38;;;21.85;;
37777;SDS011;23615;51.506;7.678;2022-07-23T09:21:08;30.98;;;23.48;;
37777;SDS011;23615;51.506;7.678;2022-07-23T09:23:37;30.48;;;22.98;;
37777;SDS011;23615;51.506;7.678;2022-07-23T09:28:52;13.18;;;11.45;;
37777;SDS011;23615;51.506;7.678;2022-07-23T09:31:20;10.93;;;8.32;;
37777;SDS011;23615;51.506;7.678;2022-07-23T09:33:47;10.15;;;7.75;;
37777;SDS011;23615;51.506;7.678;2022-07-23T09:36:12;9.25;;;7.57;;
37777;SDS011;23615;51.506;7.678;2022-07-23T09:38:47;10.05;;;8.18;;
37777;SDS011;23615;51.506;7.678;2022-07-23T09:41:14;11.25;;;7.85;;
37777;SDS011;23615;51.506;7.678;2022-07-23T09:43:39;9.73;;;7.18;;
37777;SDS011;23615;51.506;7.678;2022-07-23T09:46:21;7.97;;;7.00;;
37777;SDS011;23615;51.506;7.678;2022-07-23T09:48:49;13.30;;;11.10;;
37777;SDS011;23615;51.506;7.678;2022-07-23T09:51:16;10.55;;;9.45;;
37777;SDS011;23615;51.506;7.678;2022-07-23T09:54:01;9.63;;;8.25;;
37777;SDS011;23615;51.506;7.678;2022-07-23T09:56:27;11.07;;;7.72;;
37777;SDS011;23615;51.506;7.678;2022-07-23T09:58:52;13.18;;;7.32;;
37777;SDS011;23615;51.506;7.678;2022-07-23T10:01:30;6.32;;;5.03;;
37777;SDS011;23615;51.506;7.678;2022-07-23T10:03:56;7.47;;;6.22;;
37777;SDS011;23615;51.506;7.678;2022-07-23T10:06:22;6.80;;;5.18;;
37777;SDS011;23615;51.506;7.678;2022-07-23T10:08:48;9.15;;;5.82;;
37777;SDS011;23615;51.506;7.678;2022-07-23T10:11:16;7.28;;;4.70;;
37777;SDS011;23615;51.506;7.678;2022-07-23T10:13:42;3.92;;;3.63;;
37777;SDS011;23615;51.506;7.678;2022-07-23T10:16:20;4.55;;;4.00;;
37777;SDS011;23615;51.506;7.678;2022-07-23T10:18:46;5.38;;;4.50;;
37777;SDS011;23615;51.506;7.678;2022-07-23T10:21:12;4.93;;;4.28;;
37777;SDS011;23615;51.506;7.678;2022-07-23T10:23:47;4.82;;;3.60;;
37777;SDS011;23615;51.506;7.678;2022-07-23T10:26:30;6.03;;;4.00;;
37777;SDS011;23615;51.506;7.678;2022-07-23T10:29:11;5.93;;;3.30;;
37777;SDS011;23615;51.506;7.678;2022-07-23T10:32:02;5.38;;;3.25;;
37777;SDS011;23615;51.506;7.678;2022-07-23T10:34:44;3.30;;;3.00;;
37777;SDS011;23615;51.506;7.678;2022-07-23T10:37:27;5.20;;;3.35;;
37777;SDS011;23615;51.506;7.678;2022-07-23T10:40:19;3.65;;;2.65;;
37777;SDS011;23615;51.506;7.678;2022-07-23T10:42:45;4.95;;;3.00;;
37777;SDS011;23615;51.506;7.678;2022-07-23T10:51:14;2.75;;;2.55;;
37777;SDS011;23615;51.506;7.678;2022-07-23T10:59:19;4.10;;;2.70;;
37777;SDS011;23615;51.506;7.678;2022-07-23T11:01:45;4.13;;;2.30;;
37777;SDS011;23615;51.506;7.678;2022-07-23T11:04:10;1.90;;;1.80;;
37777;SDS011;23615;51.506;7.678;2022-07-23T11:09:56;4.18;;;2.72;;
37777;SDS011;23615;51.506;7.678;2022-07-23T11:15:05;6.18;;;3.00;;
37777;SDS011;23615;51.506;7.678;2022-07-23T11:17:36;4.97;;;2.80;;
37777;SDS011;23615;51.506;7.678;2022-07-23T11:22:37;2.30;;;2.10;;
37777;SDS011;23615;51.506;7.678;2022-07-23T11:25:03;3.05;;;1.67;;
37777;SDS011;23615;51.506;7.678;2022-07-23T11:27:41;3.78;;;2.22;;
37777;SDS011;23615;51.506;7.678;2022-07-23T11:30:09;1.88;;;1.40;;
37777;SDS011;23615;51.506;7.678;2022-07-23T11:32:53;1.90;;;1.80;;
37777;SDS011;23615;51.506;7.678;2022-07-23T11:35:40;1.80;;;1.60;;
37777;SDS011;23615;51.506;7.678;2022-07-23T11:40:52;2.42;;;1.98;;
37777;SDS011;23615;51.506;7.678;2022-07-23T11:43:19;2.67;;;1.63;;
37777;SDS011;23615;51.506;7.678;2022-07-23T11:45:47;3.53;;;1.70;;
37777;SDS011;23615;51.506;7.678;2022-07-23T11:48:25;2.90;;;1.50;;
37777;SDS011;23615;51.506;7.678;2022-07-23T11:50:52;3.05;;;1.50;;
37777;SDS011;23615;51.506;7.678;2022-07-23T11:53:24;4.65;;;1.65;;
37777;SDS011;23615;51.506;7.678;2022-07-23T11:55:52;1.65;;;1.38;;
37777;SDS011;23615;51.506;7.678;2022-07-23T11:58:17;2.72;;;1.33;;
37777;SDS011;23615;51.506;7.678;2022-07-23T12:00:43;1.60;;;1.00;;
37777;SDS011;23615;51.506;7.678;2022-07-23T12:03:08;3.35;;;1.50;;
37777;SDS011;23615;51.506;7.678;2022-07-23T12:05:34;1.55;;;1.08;;
37777;SDS011;23615;51.506;7.678;2022-07-23T12:08:02;1.98;;;1.10;;
37777;SDS011;23615;51.506;7.678;2022-07-23T12:10:39;3.60;;;1.52;;
37777;SDS011;23615;51.506;7.678;2022-07-23T12:13:12;1.52;;;1.42;;
37777;SDS011;23615;51.506;7.678;2022-07-23T12:15:43;1.42;;;1.23;;
37777;SDS011;23615;51.506;7.678;2022-07-23T12:18:16;1.67;;;0.88;;
37777;SDS011;23615;51.506;7.678;2022-07-23T12:20:45;2.55;;;1.65;;
37777;SDS011;23615;51.506;7.678;2022-07-23T12:23:14;2.58;;;1.33;;
37777;SDS011;23615;51.506;7.678;2022-07-23T12:25:41;7.97;;;1.58;;
37777;SDS011;23615;51.506;7.678;2022-07-23T12:30:39;1.55;;;1.02;;
37777;SDS011;23615;51.506;7.678;2022-07-23T12:33:10;1.48;;;1.33;;
37777;SDS011;23615;51.506;7.678;2022-07-23T12:35:46;2.35;;;2.15;;
37777;SDS011;23615;51.506;7.678;2022-07-23T12:38:13;1.80;;;1.40;;
37777;SDS011;23615;51.506;7.678;2022-07-23T12:40:41;3.78;;;1.52;;
37777;SDS011;23615;51.506;7.678;2022-07-23T12:43:10;2.00;;;1.50;;
37777;SDS011;23615;51.506;7.678;2022-07-23T12:45:52;1.85;;;1.60;;
37777;SDS011;23615;51.506;7.678;2022-07-23T12:48:23;2.53;;;1.45;;
37777;SDS011;23615;51.506;7.678;2022-07-23T12:50:55;1.55;;;1.45;;
37777;SDS011;23615;51.506;7.678;2022-07-23T12:53:24;2.33;;;2.00;;
37777;SDS011;23615;51.506;7.678;2022-07-23T12:55:57;2.17;;;2.08;;
37777;SDS011;23615;51.506;7.678;2022-07-23T13:03:53;1.80;;;0.70;;
37777;SDS011;23615;51.506;7.678;2022-07-23T13:06:30;1.23;;;0.80;;
37777;SDS011;23615;51.506;7.678;2022-07-23T13:08:57;2.30;;;0.77;;
37777;SDS011;23615;51.506;7.678;2022-07-23T13:11:23;1.48;;;0.77;;
37777;SDS011;23615;51.506;7.678;2022-07-23T13:13:48;1.38;;;0.82;;
37777;SDS011;23615;51.506;7.678;2022-07-23T13:16:14;3.63;;;1.00;;
37777;SDS011;23615;51.506;7.678;2022-07-23T13:18:39;1.55;;;1.17;;
37777;SDS011;23615;51.506;7.678;2022-07-23T13:21:05;1.40;;;0.80;;
37777;SDS011;23615;51.506;7.678;2022-07-23T13:23:30;3.00;;;1.20;;
37777;SDS011;23615;51.506;7.678;2022-07-23T13:25:55;1.67;;;1.58;;
37777;SDS011;23615;51.506;7.678;2022-07-23T13:28:21;4.18;;;1.15;;
37777;SDS011;23615;51.506;7.678;2022-07-23T13:30:48;1.58;;;1.23;;
37777;SDS011;23615;51.506;7.678;2022-07-23T13:33:15;2.42;;;1.50;;
37777;SDS011;23615;51.506;7.678;2022-07-23T13:35:44;2.05;;;0.90;;
37777;SDS011;23615;51.506;7.678;2022-07-23T13:38:10;1.38;;;0.80;;
37777;SDS011;23615;51.506;7.678;2022-07-23T13:40:36;1.52;;;1.42;;
37777;SDS011;23615;51.506;7.678;2022-07-23T13:43:04;4.55;;;1.50;;
37777;SDS011;23615;51.506;7.678;2022-07-23T13:45:31;1.33;;;0.88;;
37777;SDS011;23615;51.506;7.678;2022-07-23T13:47:56;1.13;;;0.70;;
37777;SDS011;23615;51.506;7.678;2022-07-23T13:50:21;1.23;;;0.80;;
37777;SDS011;23615;51.506;7.678;2022-07-23T13:52:47;1.40;;;0.95;;
37777;SDS011;23615;51.506;7.678;2022-07-23T13:55:12;1.45;;;0.90;;
37777;SDS011;23615;51.506;7.678;2022-07-23T13:57:37;3.00;;;1.00;;
37777;SDS011;23615;51.506;7.678;2022-07-23T14:00:03;1.50;;;0.70;;
37777;SDS011;23615;51.506;7.678;2022-07-23T14:02:31;0.80;;;0.55;;
37777;SDS011;23615;51.506;7.678;2022-07-23T14:04:57;4.32;;;1.13;;
37777;SDS011;23615;51.506;7.678;2022-07-23T14:07:22;2.13;;;0.50;;
37777;SDS011;23615;51.506;7.678;2022-07-23T14:09:48;0.70;;;0.70;;
37777;SDS011;23615;51.506;7.678;2022-07-23T14:12:13;0.57;;;0.50;;
37777;SDS011;23615;51.506;7.678;2022-07-23T14:14:38;1.40;;;0.73;;
37777;SDS011;23615;51.506;7.678;2022-07-23T14:17:04;0.80;;;0.63;;
37777;SDS011;23615;51.506;7.678;2022-07-23T14:19:29;2.08;;;0.60;;
37777;SDS011;23615;51.506;7.678;2022-07-23T14:21:54;3.83;;;0.77;;
37777;SDS011;23615;51.506;7.678;2022-07-23T14:24:19;0.95;;;0.50;;
37777;SDS011;23615;51.506;7.678;2022-07-23T14:26:45;1.38;;;0.40;;
37777;SDS011;23615;51.506;7.678;2022-07-23T14:29:11;0.40;;;0.30;;
37777;SDS011;23615;51.506;7.678;2022-07-23T14:31:36;0.93;;;0.35;;
37777;SDS011;23615;51.506;7.678;2022-07-23T14:34:02;0.80;;;0.55;;
37777;SDS011;23615;51.506;7.678;2022-07-23T14:36:27;1.35;;;0.77;;
37777;SDS011;23615;51.506;7.678;2022-07-23T14:38:52;0.60;;;0.47;;
37777;SDS011;23615;51.506;7.678;2022-07-23T14:41:18;1.80;;;0.50;;
37777;SDS011;23615;51.506;7.678;2022-07-23T14:43:43;1.27;;;0.68;;
37777;SDS011;23615;51.506;7.678;2022-07-23T14:46:09;1.48;;;0.75;;
37777;SDS011;23615;51.506;7.678;2022-07-23T14:48:36;1.50;;;0.70;;
37777;SDS011;23615;51.506;7.678;2022-07-23T14:51:02;2.92;;;0.95;;
37777;SDS011;23615;51.506;7.678;2022-07-23T14:53:28;0.88;;;0.55;;
37777;SDS011;23615;51.506;7.678;2022-07-23T14:55:54;3.80;;;0.63;;
37777;SDS011;23615;51.506;7.678;2022-07-23T14:58:21;1.10;;;0.82;;
37777;SDS011;23615;51.506;7.678;2022-07-23T15:00:47;0.95;;;0.55;;
37777;SDS011;23615;51.506;7.678;2022-07-23T15:03:12;2.20;;;0.50;;
37777;SDS011;23615;51.506;7.678;2022-07-23T15:05:37;1.85;;;0.60;;
37777;SDS011;23615;51.506;7.678;2022-07-23T15:08:03;1.80;;;0.45;;
37777;SDS011;23615;51.506;7.678;2022-07-23T15:10:28;0.75;;;0.73;;